createdAt,value
2023-04-13T00:00:49.266Z,98705.70
2023-04-13T00:03:55.337Z,98700.98
2023-04-13T00:07:00.791Z,98708.64
2023-04-13T00:10:09.110Z,98711.05
2023-04-13T00:13:15.042Z,98711.27
2023-04-13T00:16:24.707Z,98706.22
2023-04-13T00:19:32.698Z,98701.39
2023-04-13T00:22:42.630Z,98696.88
2023-04-13T00:25:47.783Z,98694.79
2023-04-13T00:28:54.715Z,98694.03
2023-04-13T00:32:00.767Z,98694.36
2023-04-13T00:35:06.791Z,98696.89
2023-04-13T00:38:12.975Z,98695.83
2023-04-13T00:41:19.628Z,98695.00
2023-04-13T00:44:29.264Z,98691.95
2023-04-13T00:47:47.671Z,98686.58
2023-04-13T00:50:54.736Z,98685.13
2023-04-13T00:54:00.758Z,98680.81
2023-04-13T00:57:07.139Z,98668.84
2023-04-13T01:00:21.872Z,98679.55
2023-04-13T01:03:29.047Z,98675.13
2023-04-13T01:06:48.291Z,98677.04
2023-04-13T01:10:30.797Z,98681.03
2023-04-13T01:13:47.618Z,98683.32
2023-04-13T01:17:02.205Z,98695.95
2023-04-13T01:20:27.346Z,98692.27
2023-04-13T01:23:44.147Z,98699.63
2023-04-13T01:27:19.642Z,98701.41
2023-04-13T01:30:28.684Z,98700.27
2023-04-13T01:33:35.697Z,98705.37
2023-04-13T01:36:40.957Z,98697.72
2023-04-13T01:39:48.967Z,98703.08
2023-04-13T01:42:59.177Z,98713.38
2023-04-13T01:46:26.148Z,98703.83
2023-04-13T01:49:30.814Z,98714.84
2023-04-13T01:52:48.542Z,98719.46
2023-04-13T01:55:56.652Z,98719.56
2023-04-13T01:59:05.673Z,98721.58
2023-04-13T02:02:11.624Z,98714.02
2023-04-13T02:05:17.970Z,98720.62
2023-04-13T02:08:25.090Z,98715.67
2023-04-13T02:11:29.940Z,98713.79
2023-04-13T02:14:38.425Z,98715.56
2023-04-13T02:17:44.931Z,98725.76
2023-04-13T02:21:18.257Z,98726.50
2023-04-13T02:24:23.994Z,98719.77
2023-04-13T02:27:30.879Z,98719.05
2023-04-13T02:30:36.638Z,98715.89
2023-04-13T02:33:43.189Z,98720.73
2023-04-13T02:36:49.522Z,98719.66
2023-04-13T02:39:56.920Z,98712.95
2023-04-13T02:43:03.947Z,98715.80
2023-04-13T02:46:09.778Z,98710.42
2023-04-13T02:49:15.796Z,98698.16
2023-04-13T02:52:32.123Z,98693.75
2023-04-13T02:55:39.453Z,98689.34
2023-04-13T02:58:44.392Z,98689.44
2023-04-13T03:01:52.028Z,98688.49
2023-04-13T03:05:01.645Z,98678.19
2023-04-13T03:08:09.702Z,98688.78
2023-04-13T03:11:27.881Z,98696.99
2023-04-13T03:14:44.299Z,98703.59
2023-04-13T03:17:51.159Z,98709.80
2023-04-13T03:20:57.488Z,98713.46
2023-04-13T03:23:57.898Z,98725.25
2023-04-13T03:27:07.474Z,98719.87
2023-04-13T03:30:14.697Z,98717.25
2023-04-13T03:33:28.098Z,98718.20
2023-04-13T03:36:33.913Z,98723.15
2023-04-13T03:39:40.781Z,98724.70
2023-04-13T03:42:48.995Z,98720.30
2023-04-13T03:45:57.453Z,98724.70
2023-04-13T03:49:03.350Z,98713.27
2023-04-13T03:52:09.015Z,98714.10
2023-04-13T03:55:09.955Z,98721.99
2023-04-13T03:58:16.392Z,98724.09
2023-04-13T04:01:23.649Z,98725.02
2023-04-13T04:04:30.525Z,98737.96
2023-04-13T04:07:39.197Z,98740.79
2023-04-13T04:10:46.310Z,98742.89
2023-04-13T04:13:52.112Z,98750.55
2023-04-13T04:16:58.220Z,98764.10
2023-04-13T04:20:05.947Z,98757.59
2023-04-13T04:23:13.188Z,98747.17
2023-04-13T04:26:27.351Z,98757.70
2023-04-13T04:29:42.174Z,98761.80
2023-04-13T04:32:52.424Z,98765.69
2023-04-13T04:36:00.987Z,98758.25
2023-04-13T04:39:08.674Z,98768.84
2023-04-13T04:42:19.438Z,98763.28
2023-04-13T04:45:27.488Z,98753.70
2023-04-13T04:48:36.938Z,98745.50
2023-04-13T04:51:42.073Z,98746.66
2023-04-13T04:54:47.539Z,98747.30
2023-04-13T04:57:47.108Z,98749.91
2023-04-13T05:00:55.183Z,98747.84
2023-04-13T05:04:01.808Z,98748.13
2023-04-13T05:07:09.729Z,98755.80
2023-04-13T05:10:16.606Z,98761.27
2023-04-13T05:13:24.404Z,98756.73
2023-04-13T05:16:41.428Z,98768.33
2023-04-13T05:19:48.896Z,98773.48
2023-04-13T05:22:56.438Z,98761.99
2023-04-13T05:26:02.195Z,98767.59
2023-04-13T05:29:10.458Z,98770.85
2023-04-13T05:32:17.939Z,98775.17
2023-04-13T05:35:25.114Z,98768.53
2023-04-13T05:38:32.009Z,98765.92
2023-04-13T05:41:38.283Z,98760.78
2023-04-13T05:44:45.741Z,98764.66
2023-04-13T05:47:52.742Z,98755.50
2023-04-13T05:51:01.636Z,98746.15
2023-04-13T05:54:09.573Z,98741.74
2023-04-13T05:57:20.614Z,98741.94
2023-04-13T06:00:28.301Z,98739.84
2023-04-13T06:03:36.297Z,98737.09
2023-04-13T06:06:42.682Z,98737.39
2023-04-13T06:09:50.883Z,98734.13
2023-04-13T06:13:00.568Z,98737.28
2023-04-13T06:16:07.569Z,98740.94
2023-04-13T06:19:14.429Z,98751.95
2023-04-13T06:22:21.213Z,98749.00
2023-04-13T06:25:31.059Z,98765.55
2023-04-13T06:28:39.030Z,98767.02
2023-04-13T06:31:45.957Z,98763.34
2023-04-13T06:34:52.826Z,98762.17
2023-04-13T06:38:00.458Z,98760.97
2023-04-13T06:41:08.424Z,98765.21
2023-04-13T06:44:15.894Z,98774.56
2023-04-13T06:47:24.863Z,98777.98
2023-04-13T06:50:30.853Z,98797.69
2023-04-13T06:53:39.590Z,98802.41
2023-04-13T06:56:46.585Z,98809.30
2023-04-13T06:59:53.336Z,98812.98
2023-04-13T07:03:00.085Z,98812.71
2023-04-13T07:06:17.883Z,98817.23
2023-04-13T07:09:24.927Z,98822.59
2023-04-13T07:12:32.538Z,98828.92
2023-04-13T07:15:40.225Z,98824.94
2023-04-13T07:18:50.972Z,98824.51
2023-04-13T07:21:56.036Z,98829.11
2023-04-13T07:25:03.941Z,98824.88
2023-04-13T07:28:15.601Z,98826.17
2023-04-13T07:31:22.844Z,98831.38
2023-04-13T07:34:29.627Z,98829.58
2023-04-13T07:37:36.254Z,98822.15
2023-04-13T07:40:45.495Z,98826.89
2023-04-13T07:43:51.426Z,98834.58
2023-04-13T07:46:58.149Z,98845.59
2023-04-13T07:50:04.702Z,98833.47
2023-04-13T07:53:11.652Z,98837.88
2023-04-13T07:56:18.052Z,98841.33
2023-04-13T07:59:25.357Z,98834.72
2023-04-13T08:02:31.293Z,98836.56
2023-04-13T08:06:17.378Z,98833.34
2023-04-13T08:09:07.899Z,98842.17
2023-04-13T08:12:16.436Z,98825.45
2023-04-13T08:15:24.383Z,98819.39
2023-04-13T08:18:33.818Z,98820.35
2023-04-13T08:21:40.002Z,98823.79
2023-04-13T08:24:51.522Z,98821.91
2023-04-13T08:27:58.440Z,98814.77
2023-04-13T08:31:04.923Z,98816.59
2023-04-13T08:34:12.780Z,98804.39
2023-04-13T08:37:20.969Z,98801.20
2023-04-13T08:40:28.359Z,98807.58
2023-04-13T08:43:28.465Z,98815.91
2023-04-13T08:46:37.048Z,98812.63
2023-04-13T08:49:42.978Z,98811.10
2023-04-13T08:52:50.576Z,98811.39
2023-04-13T08:56:00.022Z,98807.97
2023-04-13T08:59:07.167Z,98808.66
2023-04-13T09:02:14.419Z,98806.90
2023-04-13T09:05:27.654Z,98794.48
2023-04-13T09:08:34.833Z,98797.23
2023-04-13T09:11:41.182Z,98803.31
2023-04-13T09:14:46.569Z,98800.96
2023-04-13T09:17:53.986Z,98803.94
2023-04-13T09:21:14.626Z,98807.59
2023-04-13T09:24:21.318Z,98812.14
2023-04-13T09:27:36.467Z,98808.81
2023-04-13T09:30:42.878Z,98806.14
2023-04-13T09:34:02.247Z,98814.09
2023-04-13T09:37:08.487Z,98809.97
2023-04-13T09:40:30.587Z,98812.45
2023-04-13T09:43:35.930Z,98812.92
2023-04-13T09:46:41.182Z,98817.00
2023-04-13T09:49:58.479Z,98824.75
2023-04-13T09:53:17.111Z,98825.30
2023-04-13T09:56:24.868Z,98826.68
2023-04-13T09:59:31.933Z,98832.95
2023-04-13T10:02:38.961Z,98832.14
2023-04-13T10:05:58.913Z,98838.70
2023-04-13T10:08:46.846Z,98845.33
2023-04-13T10:11:58.646Z,98851.12
2023-04-13T10:15:06.526Z,98847.24
2023-04-13T10:18:40.086Z,98845.13
2023-04-13T10:21:50.379Z,98841.00
2023-04-13T10:24:57.825Z,98842.67
2023-04-13T10:28:11.087Z,98846.33
2023-04-13T10:31:17.648Z,98845.30
2023-04-13T10:34:25.451Z,98842.95
2023-04-13T10:37:41.339Z,98851.34
2023-04-13T10:41:00.873Z,98852.80
2023-04-13T10:44:18.989Z,98858.95
2023-04-13T10:47:27.812Z,98856.49
2023-04-13T10:50:34.759Z,98855.89
2023-04-13T10:53:41.825Z,98854.05
2023-04-13T10:56:47.012Z,98852.77
2023-04-13T11:00:04.973Z,98853.77
2023-04-13T11:03:12.896Z,98857.27
2023-04-13T11:06:19.413Z,98852.31
2023-04-13T11:09:25.361Z,98853.38
2023-04-13T11:12:34.933Z,98857.59
2023-04-13T11:15:43.644Z,98862.09
2023-04-13T11:18:49.426Z,98867.11
2023-04-13T11:21:55.484Z,98865.33
2023-04-13T11:25:01.487Z,98868.54
2023-04-13T11:28:17.393Z,98866.95
2023-04-13T11:31:23.564Z,98860.78
2023-04-13T11:34:35.998Z,98858.14
2023-04-13T11:37:41.842Z,98850.25
2023-04-13T11:40:48.702Z,98852.89
2023-04-13T11:43:55.362Z,98856.77
2023-04-13T11:47:00.859Z,98864.07
2023-04-13T11:50:06.213Z,98856.98
2023-04-13T11:53:12.022Z,98859.27
2023-04-13T11:56:17.888Z,98856.41
2023-04-13T11:59:24.971Z,98846.30
2023-04-13T12:02:33.452Z,98856.21
2023-04-13T12:05:43.174Z,98855.66
2023-04-13T12:08:54.573Z,98859.17
2023-04-13T12:12:34.589Z,98858.04
2023-04-13T12:15:25.031Z,98857.86
2023-04-13T12:21:31.537Z,98859.59
2023-04-13T12:24:50.235Z,98855.56
2023-04-13T12:27:56.374Z,98854.53
2023-04-13T12:30:54.823Z,98859.34
2023-04-13T12:33:54.176Z,98850.82
2023-04-13T12:37:00.255Z,98848.02
2023-04-13T12:40:06.929Z,98840.86
2023-04-13T12:43:13.186Z,98845.13
2023-04-13T12:46:19.759Z,98844.14
2023-04-13T12:49:25.808Z,98843.84
2023-04-13T12:52:34.553Z,98843.45
2023-04-13T12:55:41.959Z,98834.13
2023-04-13T12:58:49.170Z,98834.06
2023-04-13T13:01:54.809Z,98835.63
2023-04-13T13:05:06.381Z,98832.72
2023-04-13T13:08:12.332Z,98831.81
2023-04-13T13:11:17.544Z,98829.50
2023-04-13T13:14:23.167Z,98836.22
2023-04-13T13:17:28.248Z,98832.81
2023-04-13T13:20:33.929Z,98828.96
2023-04-13T13:23:39.992Z,98839.28
2023-04-13T13:27:14.299Z,98841.17
2023-04-13T13:29:54.526Z,98827.34
2023-04-13T13:33:01.432Z,98831.77
2023-04-13T13:36:07.873Z,98835.14
2023-04-13T13:39:07.832Z,98838.89
2023-04-13T13:42:15.608Z,98843.72
2023-04-13T13:45:22.069Z,98836.39
2023-04-13T13:48:29.130Z,98838.09
2023-04-13T13:51:38.006Z,98835.37
2023-04-13T13:54:44.199Z,98842.55
2023-04-13T13:57:49.794Z,98848.53
2023-04-13T14:00:57.389Z,98848.74
2023-04-13T14:04:04.148Z,98855.08
2023-04-13T14:07:10.320Z,98851.89
2023-04-13T14:10:15.488Z,98854.86
2023-04-13T14:13:21.554Z,98858.16
2023-04-13T14:16:27.418Z,98849.82
2023-04-13T14:19:34.122Z,98854.53
2023-04-13T14:22:38.685Z,98847.50
2023-04-13T14:25:43.791Z,98844.67
2023-04-13T14:28:50.209Z,98838.17
2023-04-13T14:31:56.870Z,98851.28
2023-04-13T14:35:02.749Z,98847.20
2023-04-13T14:38:09.156Z,98837.05
2023-04-13T14:41:16.472Z,98847.91
2023-04-13T14:44:22.775Z,98851.84
2023-04-13T14:47:28.277Z,98859.30
2023-04-13T14:50:35.824Z,98851.63
2023-04-13T14:53:41.344Z,98856.69
2023-04-13T14:56:46.569Z,98859.05
2023-04-13T14:59:55.101Z,98859.66
2023-04-13T15:03:00.371Z,98857.25
2023-04-13T15:06:07.020Z,98858.84
2023-04-13T15:09:15.667Z,98853.50
2023-04-13T15:12:22.158Z,98857.80
2023-04-13T15:15:28.732Z,98856.25
2023-04-13T15:18:34.362Z,98855.12
2023-04-13T15:21:40.399Z,98861.15
2023-04-13T15:24:46.249Z,98857.81
2023-04-13T15:27:52.111Z,98859.00
2023-04-13T15:30:59.551Z,98853.06
2023-04-13T15:34:04.978Z,98859.78
2023-04-13T15:37:11.567Z,98862.53
2023-04-13T15:40:18.318Z,98861.09
2023-04-13T15:43:24.371Z,98857.87
2023-04-13T15:46:30.683Z,98864.25
2023-04-13T15:49:37.296Z,98867.09
2023-04-13T15:52:43.018Z,98865.17
2023-04-13T15:55:50.311Z,98862.10
2023-04-13T15:58:55.383Z,98856.25
2023-04-13T16:02:04.157Z,98860.73
2023-04-13T16:05:09.524Z,98869.73
2023-04-13T16:08:15.766Z,98871.55
2023-04-13T16:11:21.412Z,98871.55
2023-04-13T16:14:27.114Z,98866.84
2023-04-13T16:17:39.659Z,98866.29
2023-04-13T16:20:46.258Z,98870.09
2023-04-13T16:23:52.428Z,98875.56
2023-04-13T16:26:59.252Z,98879.65
2023-04-13T16:30:05.752Z,98878.28
2023-04-13T16:33:05.739Z,98890.63
2023-04-13T16:36:11.987Z,98888.31
2023-04-13T16:39:21.392Z,98891.06
2023-04-13T16:42:28.246Z,98895.64
2023-04-13T16:45:33.777Z,98898.05
2023-04-13T16:48:39.696Z,98896.52
2023-04-13T16:51:45.290Z,98902.94
2023-04-13T16:54:50.816Z,98901.09
2023-04-13T16:57:58.578Z,98903.94
2023-04-13T17:01:04.309Z,98904.16
2023-04-13T17:04:04.057Z,98907.04
2023-04-13T17:06:50.239Z,98906.31
2023-04-13T17:09:43.128Z,98915.80
2023-04-13T17:12:43.194Z,98912.88
2023-04-13T17:15:49.217Z,98918.97
2023-04-13T17:18:55.795Z,98918.49
2023-04-13T17:22:02.889Z,98922.27
2023-04-13T17:25:08.765Z,98923.34
2023-04-13T17:28:15.963Z,98930.14
2023-04-13T17:31:21.410Z,98933.23
2023-04-13T17:34:27.501Z,98931.91
2023-04-13T17:37:35.990Z,98929.13
2023-04-13T17:40:42.264Z,98933.77
2023-04-13T17:43:47.869Z,98935.69
2023-04-13T17:46:56.082Z,98936.03
2023-04-13T17:50:03.579Z,98923.05
2023-04-13T17:53:11.383Z,98931.22
2023-04-13T17:56:16.815Z,98929.66
2023-04-13T17:59:22.872Z,98937.89
2023-04-13T18:02:29.561Z,98930.94
2023-04-13T18:05:35.660Z,98930.02
2023-04-13T18:08:41.016Z,98925.08
2023-04-13T18:11:46.560Z,98925.84
2023-04-13T18:14:52.010Z,98922.99
2023-04-13T18:17:56.952Z,98921.31
2023-04-13T18:21:03.200Z,98927.22
2023-04-13T18:24:03.323Z,98924.77
2023-04-13T18:27:08.283Z,98930.25
2023-04-13T18:30:14.491Z,98921.20
2023-04-13T18:33:20.653Z,98922.46
2023-04-13T18:36:31.312Z,98920.03
2023-04-13T18:39:38.381Z,98925.20
2023-04-13T18:42:44.812Z,98931.25
2023-04-13T18:45:50.579Z,98931.44
2023-04-13T18:48:56.706Z,98926.16
2023-04-13T18:52:03.376Z,98927.63
2023-04-13T18:55:10.301Z,98925.15
2023-04-13T18:58:18.056Z,98925.08
2023-04-13T19:01:33.175Z,98925.01
2023-04-13T19:04:39.185Z,98926.19
2023-04-13T19:07:45.595Z,98922.69
2023-04-13T19:10:51.496Z,98920.71
2023-04-13T19:13:57.553Z,98918.09
2023-04-13T19:17:04.134Z,98911.78
2023-04-13T19:20:12.281Z,98912.34
2023-04-13T19:23:19.288Z,98914.02
2023-04-13T19:26:26.250Z,98909.80
2023-04-13T19:29:34.474Z,98915.05
2023-04-13T19:32:40.399Z,98919.27
2023-04-13T19:35:45.744Z,98916.53
2023-04-13T19:38:52.190Z,98913.56
2023-04-13T19:41:58.760Z,98916.00
2023-04-13T19:45:05.499Z,98912.73
2023-04-13T19:48:12.111Z,98904.52
2023-04-13T19:51:18.599Z,98905.61
2023-04-13T19:54:25.438Z,98904.47
2023-04-13T19:57:31.831Z,98905.53
2023-04-13T20:00:38.026Z,98910.81
2023-04-13T20:03:44.518Z,98912.20
2023-04-13T20:06:50.062Z,98910.53
2023-04-13T20:09:56.176Z,98918.73
2023-04-13T20:13:01.519Z,98922.11
2023-04-13T20:16:06.565Z,98919.27
2023-04-13T20:19:12.843Z,98922.22
2023-04-13T20:22:20.411Z,98922.96
2023-04-13T20:25:25.943Z,98914.98
2023-04-13T20:28:32.664Z,98912.43
2023-04-13T20:31:39.668Z,98919.49
2023-04-13T20:34:44.916Z,98914.66
2023-04-13T20:37:50.297Z,98912.76
2023-04-13T20:40:57.002Z,98911.39
2023-04-13T20:44:05.008Z,98911.92
2023-04-13T20:47:04.077Z,98910.87
2023-04-13T20:49:58.954Z,98910.98
2023-04-13T20:53:06.973Z,98911.80
2023-04-13T20:56:13.475Z,98904.86
2023-04-13T20:59:18.764Z,98912.86
2023-04-13T21:02:23.940Z,98904.35
2023-04-13T21:05:30.080Z,98900.05
2023-04-13T21:08:36.357Z,98901.63
2023-04-13T21:11:43.073Z,98908.27
2023-04-13T21:14:48.789Z,98905.52
2023-04-13T21:17:48.203Z,98905.73
2023-04-13T21:20:35.360Z,98904.88
2023-04-13T21:23:27.623Z,98913.41
2023-04-13T21:26:15.131Z,98908.25
2023-04-13T21:29:08.773Z,98907.39
2023-04-13T21:31:55.189Z,98904.47
2023-04-13T21:34:48.865Z,98909.94
2023-04-13T21:37:54.667Z,98915.72
2023-04-13T21:41:00.287Z,98906.67
2023-04-13T21:44:05.451Z,98913.00
2023-04-13T21:47:04.413Z,98909.29
2023-04-13T21:50:10.708Z,98907.39
2023-04-13T21:53:16.464Z,98910.76
2023-04-13T21:56:23.175Z,98911.63
2023-04-13T21:59:31.315Z,98916.45
2023-04-13T22:02:38.799Z,98908.16
2023-04-13T22:05:45.027Z,98912.23
2023-04-13T22:08:50.448Z,98905.31
2023-04-13T22:11:55.976Z,98903.30
2023-04-13T22:15:01.888Z,98913.17
2023-04-13T22:18:08.672Z,98899.30
2023-04-13T22:21:15.605Z,98903.30
2023-04-13T22:24:22.764Z,98902.47
2023-04-13T22:27:28.402Z,98899.30
2023-04-13T22:30:34.629Z,98894.36
2023-04-13T22:33:42.686Z,98897.00
2023-04-13T22:36:41.644Z,98898.36
2023-04-13T22:39:47.585Z,98899.62
2023-04-13T22:42:55.290Z,98902.23
2023-04-13T22:46:01.184Z,98904.36
2023-04-13T22:49:06.347Z,98905.73
2023-04-13T22:52:13.560Z,98904.48
2023-04-13T22:55:19.020Z,98908.47
2023-04-13T22:58:25.201Z,98918.02
2023-04-13T23:01:31.045Z,98910.33
2023-04-13T23:04:36.523Z,98909.83
2023-04-13T23:07:42.440Z,98910.55
2023-04-13T23:10:48.894Z,98912.03
2023-04-13T23:13:54.124Z,98913.06
2023-04-13T23:16:59.498Z,98912.56
2023-04-13T23:20:09.121Z,98911.41
2023-04-13T23:23:15.370Z,98911.61
2023-04-13T23:26:21.626Z,98904.77
2023-04-13T23:29:27.314Z,98906.16
2023-04-13T23:32:32.681Z,98907.30
2023-04-13T23:35:38.650Z,98913.63
2023-04-13T23:38:45.523Z,98917.83
2023-04-13T23:41:53.284Z,98912.14
2023-04-13T23:44:58.916Z,98915.39
2023-04-13T23:48:05.066Z,98916.13
2023-04-13T23:51:11.711Z,98915.18
2023-04-13T23:54:19.289Z,98925.59
2023-04-13T23:57:24.601Z,98932.43
